Time;durP1;ratioP1;P1;durP2;ratioP2;P2;SDS_P1;SDS_P2;PMS_P1;PMS_P2;Temp;Humidity;BMP_temperature;BMP_pressure;BME280_temperature;BME280_humidity;BME280_pressure;Samples;Min_cycle;Max_cycle;Signal;HPM_P1;HPM_P2
2024/03/23 00:00:59;;;;;;;;;;;;;;;23.41;47.71;93849.47;5002544;28;9468;-61
2024/03/23 00:03:31;;;;;;;;;;;;;;;23.41;47.99;93846.72;4981778;28;9362;-61
2024/03/23 00:06:07;;;;;;;;;;;;;;;23.37;47.52;93832.53;4995720;28;9093;-60
2024/03/23 00:08:35;;;;;;;;;;;;;;;23.41;47.65;93847.47;5020383;28;9864;-67
2024/03/23 00:11:11;;;;;;;;;;;;;;;23.39;47.99;93841.00;5016441;28;9544;-67
2024/03/23 00:13:43;;;;;;;;;;;;;;;23.37;47.21;93838.03;4991400;28;9039;-67
2024/03/23 00:16:10;;;;;;;;;;;;;;;23.37;47.92;93835.28;5012317;28;9422;-61
2024/03/23 00:18:41;;;;;;;;;;;;;;;23.36;47.52;93825.56;5000431;28;8116;-63
2024/03/23 00:21:09;;;;;;;;;;;;;;;23.35;47.61;93829.56;5007110;28;7661;-63
2024/03/23 00:23:36;;;;;;;;;;;;;;;23.35;47.31;93818.56;5041475;28;9389;-63
2024/03/23 00:26:04;;;;;;;;;;;;;;;23.33;47.48;93821.06;5025016;28;8947;-63
2024/03/23 00:28:35;;;;;;;;;;;;;;;23.32;47.67;93820.31;5037751;28;9333;-60
2024/03/23 00:31:03;;;;;;;;;;;;;;;23.31;47.63;93820.81;5027289;28;9479;-60
2024/03/23 00:33:36;;;;;;;;;;;;;;;23.32;47.59;93819.56;5019945;28;7027;-60
2024/03/23 00:36:04;;;;;;;;;;;;;;;23.31;47.93;93812.59;5040839;28;9411;-59
2024/03/23 00:38:31;;;;;;;;;;;;;;;23.30;47.95;93814.59;5045556;28;9289;-59
2024/03/23 00:41:07;;;;;;;;;;;;;;;23.31;47.68;93813.34;5051281;28;7012;-60
2024/03/23 00:43:38;;;;;;;;;;;;;;;23.31;47.68;93807.09;5037156;28;7346;-59
2024/03/23 00:46:25;;;;;;;;;;;;;;;23.29;47.32;93810.38;5053586;28;9498;-59
2024/03/23 00:48:59;;;;;;;;;;;;;;;23.26;47.54;93808.63;5024575;28;7320;-60
2024/03/23 00:51:29;;;;;;;;;;;;;;;23.25;47.84;93802.38;5035079;28;7008;-60
2024/03/23 00:53:57;;;;;;;;;;;;;;;23.23;47.72;93804.16;5022486;28;9109;-60
2024/03/23 00:56:30;;;;;;;;;;;;;;;23.25;47.52;93799.66;5039273;28;9463;-60
2024/03/23 00:59:33;;;;;;;;;;;;;;;23.25;47.46;93788.69;5068374;28;7114;-60
2024/03/23 01:02:10;;;;;;;;;;;;;;;23.25;47.58;93783.19;5035403;28;8929;-60
2024/03/23 01:04:49;;;;;;;;;;;;;;;23.25;47.62;93785.19;5067933;28;9313;-60
2024/03/23 01:07:43;;;;;;;;;;;;;;;23.25;47.85;93774.19;5071277;28;9632;-59
2024/03/23 01:10:54;;;;;;;;;;;;;;;23.24;47.92;93773.47;5044559;28;9489;-60
2024/03/23 01:13:23;;;;;;;;;;;;;;;23.21;47.07;93766.25;5052887;28;9095;-60
2024/03/23 01:15:52;;;;;;;;;;;;;;;23.21;47.18;93760.78;5030077;28;8792;-60
2024/03/23 01:18:22;;;;;;;;;;;;;;;23.21;47.77;93757.28;5066317;28;8688;-60
2024/03/23 01:20:49;;;;;;;;;;;;;;;23.20;47.64;93758.53;5054871;28;9648;-60
2024/03/23 01:23:46;;;;;;;;;;;;;;;23.20;47.59;93755.81;5041542;28;7019;-60
2024/03/23 01:26:57;;;;;;;;;;;;;;;23.19;47.41;93754.31;5003334;28;9852;-60
2024/03/23 01:29:38;;;;;;;;;;;;;;;23.21;47.65;93754.53;4962003;28;9470;-60
2024/03/23 01:32:09;;;;;;;;;;;;;;;23.19;47.77;93746.06;4971922;28;8733;-60
2024/03/23 01:34:53;;;;;;;;;;;;;;;23.21;47.78;93744.31;4947564;28;9710;-60
2024/03/23 01:37:50;;;;;;;;;;;;;;;23.20;47.36;93748.31;4942198;28;9082;-63
2024/03/23 01:40:41;;;;;;;;;;;;;;;23.20;47.60;93736.59;4931265;29;9443;-63
2024/03/23 01:43:18;;;;;;;;;;;;;;;23.18;47.72;93742.56;4901103;29;9176;-63
2024/03/23 01:45:54;;;;;;;;;;;;;;;23.15;47.40;93735.38;4902391;29;9157;-63
2024/03/23 01:52:02;;;;;;;;;;;;;;;23.14;47.44;93728.41;4879245;29;9040;-63
2024/03/23 01:54:45;;;;;;;;;;;;;;;23.14;47.55;93733.16;4863196;29;9629;-63
2024/03/23 01:57:29;;;;;;;;;;;;;;;23.12;47.45;93724.66;4861794;29;7426;-63
2024/03/23 02:00:18;;;;;;;;;;;;;;;23.14;47.27;93711.22;4861564;29;7869;-63
2024/03/23 02:03:24;;;;;;;;;;;;;;;23.13;47.81;93713.22;5111851;27;7064;-61
2024/03/23 02:05:52;;;;;;;;;;;;;;;23.13;47.09;93698.75;5091116;28;7199;-62
2024/03/23 02:08:21;;;;;;;;;;;;;;;23.13;47.44;93687.78;5106783;28;9417;-61
2024/03/23 02:10:59;;;;;;;;;;;;;;;23.14;47.54;93683.78;5103518;28;7030;-61
2024/03/23 02:13:31;;;;;;;;;;;;;;;23.15;47.31;93680.53;5094285;28;7233;-61
2024/03/23 02:15:59;;;;;;;;;;;;;;;23.12;47.29;93673.31;5104981;28;7230;-62
2024/03/23 02:18:34;;;;;;;;;;;;;;;23.14;47.30;93679.03;5091391;28;7055;-61
2024/03/23 02:21:10;;;;;;;;;;;;;;;23.14;47.54;93670.78;5087088;28;7102;-61
2024/03/23 02:23:36;;;;;;;;;;;;;;;23.14;47.21;93668.03;5081018;28;7288;-61
2024/03/23 02:26:10;;;;;;;;;;;;;;;23.15;47.08;93664.06;5083311;28;8561;-61
2024/03/23 02:28:41;;;;;;;;;;;;;;;23.14;47.05;93651.59;5097440;28;7048;-61
2024/03/23 02:31:12;;;;;;;;;;;;;;;23.14;47.05;93653.63;5095159;28;7434;-61
2024/03/23 02:34:08;;;;;;;;;;;;;;;23.13;47.25;93644.63;5074033;28;7374;-61
2024/03/23 02:36:40;;;;;;;;;;;;;;;23.13;47.00;93638.41;5032023;28;7070;-62
2024/03/23 02:39:15;;;;;;;;;;;;;;;23.09;46.81;93635.94;5031622;28;9376;-62
2024/03/23 02:45:30;;;;;;;;;;;;;;;23.06;46.88;93626.00;5044817;28;6910;-61
2024/03/23 02:48:15;;;;;;;;;;;;;;;23.13;46.92;93625.44;5031967;28;7155;-60
2024/03/23 02:50:54;;;;;;;;;;;;;;;23.12;46.86;93626.69;5038478;28;8942;-60
2024/03/23 02:53:20;;;;;;;;;;;;;;;23.06;46.79;93608.78;5035818;28;9048;-59
2024/03/23 02:55:46;;;;;;;;;;;;;;;23.13;46.87;93628.19;5032280;28;7160;-60
2024/03/23 02:58:24;;;;;;;;;;;;;;;23.12;46.61;93621.19;5028375;28;7080;-60
2024/03/23 03:00:50;;;;;;;;;;;;;;;23.07;46.97;93613.78;5014340;28;7014;-60
2024/03/23 03:03:18;;;;;;;;;;;;;;;23.02;46.97;93609.06;5020163;28;7204;-60
2024/03/23 03:05:44;;;;;;;;;;;;;;;23.09;46.74;93618.75;5040370;28;9105;-60
2024/03/23 03:08:19;;;;;;;;;;;;;;;23.09;46.85;93616.00;5028710;28;7218;-60
2024/03/23 03:11:10;;;;;;;;;;;;;;;23.09;46.99;93616.75;5022992;28;8026;-60
2024/03/23 03:14:07;;;;;;;;;;;;;;;23.11;46.97;93613.47;5064752;28;7191;-60
2024/03/23 03:16:43;;;;;;;;;;;;;;;23.04;46.92;93609.31;5063751;28;7040;-64
2024/03/23 03:19:10;;;;;;;;;;;;;;;23.02;46.97;93600.84;5071582;28;6951;-62
2024/03/23 03:21:47;;;;;;;;;;;;;;;23.11;46.93;93611.50;5076846;28;7028;-62
2024/03/23 03:24:47;;;;;;;;;;;;;;;23.10;47.20;93599.00;5075994;28;8455;-62
2024/03/23 03:27:35;;;;;;;;;;;;;;;23.03;47.24;93588.59;5078248;28;8746;-62
2024/03/23 03:30:50;;;;;;;;;;;;;;;23.08;47.12;93598.78;5089751;28;7302;-62
2024/03/23 03:33:16;;;;;;;;;;;;;;;23.09;47.20;93594.81;5014618;28;7286;-62
2024/03/23 03:36:20;;;;;;;;;;;;;;;23.09;46.97;93600.28;4998450;28;8598;-62
2024/03/23 03:38:55;;;;;;;;;;;;;;;23.07;46.87;93594.56;4955798;28;7250;-62
2024/03/23 03:41:21;;;;;;;;;;;;;;;23.01;46.97;93591.13;4934531;28;9419;-62
2024/03/23 03:44:04;;;;;;;;;;;;;;;23.06;46.81;93597.81;4956544;28;8977;-62
2024/03/23 03:46:30;;;;;;;;;;;;;;;22.99;46.89;93588.16;4963543;28;7094;-62
2024/03/23 03:48:57;;;;;;;;;;;;;;;22.98;47.00;93577.69;4951115;28;7288;-62
2024/03/23 03:51:26;;;;;;;;;;;;;;;23.03;47.12;93585.88;4944369;28;9413;-62
2024/03/23 03:53:54;;;;;;;;;;;;;;;23.00;47.22;93578.69;4941098;28;9195;-62
2024/03/23 03:56:25;;;;;;;;;;;;;;;22.90;46.96;93563.78;4951633;28;7030;-59
2024/03/23 03:58:51;;;;;;;;;;;;;;;22.98;46.67;93564.75;4949937;28;7042;-59
2024/03/23 04:01:16;;;;;;;;;;;;;;;23.03;47.24;93574.88;4970049;28;9070;-60
2024/03/23 04:03:47;;;;;;;;;;;;;;;23.00;47.14;93559.47;4929070;28;9114;-60
2024/03/23 04:06:19;;;;;;;;;;;;;;;22.95;46.93;93551.28;4936429;29;6908;-59
2024/03/23 04:09:10;;;;;;;;;;;;;;;23.00;46.86;93562.22;4980361;28;7067;-59
2024/03/23 04:11:36;;;;;;;;;;;;;;;23.00;47.07;93559.47;5067487;28;8343;-59
2024/03/23 04:14:04;;;;;;;;;;;;;;;22.97;46.79;93544.03;5080889;28;8077;-59
2024/03/23 04:16:38;;;;;;;;;;;;;;;22.99;46.40;93547.00;5069437;28;8882;-59
2024/03/23 04:19:06;;;;;;;;;;;;;;;22.98;46.72;93536.56;5070248;28;8834;-59
2024/03/23 04:21:59;;;;;;;;;;;;;;;22.98;46.96;93531.84;5072969;28;9277;-59
2024/03/23 04:24:30;;;;;;;;;;;;;;;22.97;47.25;93522.09;5068216;28;7293;-59
2024/03/23 04:26:57;;;;;;;;;;;;;;;22.95;46.88;93512.91;5070582;28;6994;-59
2024/03/23 04:29:28;;;;;;;;;;;;;;;22.96;46.83;93517.16;5088832;28;7975;-59
2024/03/23 04:32:05;;;;;;;;;;;;;;;22.96;47.04;93520.63;5059876;28;7030;-59
2024/03/23 04:34:35;;;;;;;;;;;;;;;22.97;46.84;93500.16;5075303;28;7062;-59
2024/03/23 04:37:09;;;;;;;;;;;;;;;22.96;47.04;93493.22;5081968;28;7267;-59
2024/03/23 04:39:50;;;;;;;;;;;;;;;22.96;47.17;93486.97;5062056;28;7151;-60
2024/03/23 04:42:31;;;;;;;;;;;;;;;22.89;46.69;93469.09;5074512;28;7077;-60
2024/03/23 04:45:02;;;;;;;;;;;;;;;22.94;47.01;93462.06;5074403;28;9470;-60
2024/03/23 04:47:35;;;;;;;;;;;;;;;22.88;46.74;93453.19;5068297;28;9032;-59
2024/03/23 04:50:26;;;;;;;;;;;;;;;22.93;47.03;93450.34;5063522;28;7395;-57
2024/03/23 04:52:55;;;;;;;;;;;;;;;22.92;46.96;93443.38;5071865;28;9402;-58
2024/03/23 04:55:22;;;;;;;;;;;;;;;22.88;47.07;93431.97;5082572;28;7280;-58
2024/03/23 04:57:55;;;;;;;;;;;;;;;22.95;47.66;93447.84;5055373;28;7240;-58
2024/03/23 05:00:37;;;;;;;;;;;;;;;22.96;47.07;93443.84;5070014;28;7260;-58
2024/03/23 05:03:05;;;;;;;;;;;;;;;22.92;47.17;93442.66;5062885;28;7267;-58
2024/03/23 05:05:31;;;;;;;;;;;;;;;22.88;47.00;93431.97;5074243;28;7282;-56
2024/03/23 05:07:57;;;;;;;;;;;;;;;22.87;47.24;93430.50;5066386;28;7557;-59
2024/03/23 05:10:55;;;;;;;;;;;;;;;22.93;46.96;93439.38;5065144;28;7006;-59
2024/03/23 05:13:35;;;;;;;;;;;;;;;22.92;47.00;93437.91;5065216;28;7193;-59
2024/03/23 05:16:36;;;;;;;;;;;;;;;22.90;47.42;93421.22;5070952;28;7517;-59
2024/03/23 05:19:28;;;;;;;;;;;;;;;22.93;47.27;93433.91;5059475;28;7103;-59
2024/03/23 05:22:13;;;;;;;;;;;;;;;22.93;47.26;93433.16;5074167;28;9529;-59
2024/03/23 05:25:05;;;;;;;;;;;;;;;22.92;47.11;93413.22;5072241;28;7239;-59
2024/03/23 05:27:41;;;;;;;;;;;;;;;22.90;46.80;93429.44;5053760;28;7034;-59
2024/03/23 05:30:39;;;;;;;;;;;;;;;22.92;47.09;93426.22;5068644;28;6986;-59
2024/03/23 05:33:06;;;;;;;;;;;;;;;22.89;47.21;93444.44;4993126;28;7093;-59
2024/03/23 05:35:32;;;;;;;;;;;;;;;22.96;46.93;93459.56;4990114;28;7218;-59
2024/03/23 05:38:01;;;;;;;;;;;;;;;23.00;46.94;93468.97;4988036;28;7352;-59
2024/03/23 05:40:30;;;;;;;;;;;;;;;22.97;47.16;93477.47;4988584;28;7483;-60
2024/03/23 05:42:56;;;;;;;;;;;;;;;23.02;47.05;93493.13;4988754;28;9531;-59
2024/03/23 05:45:32;;;;;;;;;;;;;;;23.02;46.89;93515.06;4991151;28;7233;-59
2024/03/23 05:48:13;;;;;;;;;;;;;;;23.00;46.88;93510.13;4992373;28;7081;-59
2024/03/23 05:50:39;;;;;;;;;;;;;;;23.06;47.06;93535.47;4992182;28;7906;-59
2024/03/23 05:53:42;;;;;;;;;;;;;;;23.07;46.99;93520.53;4992154;28;7406;-59
2024/03/23 05:56:22;;;;;;;;;;;;;;;23.05;47.09;93531.25;4991061;28;7829;-59
2024/03/23 05:58:49;;;;;;;;;;;;;;;23.07;46.91;93541.72;4971516;28;7026;-59
2024/03/23 06:01:14;;;;;;;;;;;;;;;23.07;47.10;93539.72;4963005;28;7249;-59
2024/03/23 06:03:43;;;;;;;;;;;;;;;23.02;47.14;93526.81;4975947;28;7026;-58
2024/03/23 06:06:12;;;;;;;;;;;;;;;23.07;47.01;93542.47;4992016;28;8994;-59
2024/03/23 06:08:44;;;;;;;;;;;;;;;23.10;46.99;93557.88;5031441;28;7047;-59
2024/03/23 06:11:30;;;;;;;;;;;;;;;23.11;46.96;93558.63;5062800;28;9565;-58
2024/03/23 06:14:18;;;;;;;;;;;;;;;23.04;47.17;93559.94;5073357;28;7306;-57
2024/03/23 06:16:44;;;;;;;;;;;;;;;23.08;46.94;93571.38;5062492;28;7235;-58
2024/03/23 06:19:21;;;;;;;;;;;;;;;23.11;46.86;93581.31;5063415;28;7026;-58
2024/03/23 06:22:07;;;;;;;;;;;;;;;23.14;46.77;93591.25;5065499;28;7403;-58
2024/03/23 06:24:50;;;;;;;;;;;;;;;23.11;47.00;93583.31;5088889;28;7122;-58
2024/03/23 06:27:47;;;;;;;;;;;;;;;23.16;47.02;93596.97;5071174;28;7162;-58
2024/03/23 06:30:26;;;;;;;;;;;;;;;23.14;47.29;93599.47;5071266;28;6974;-58
2024/03/23 06:32:55;;;;;;;;;;;;;;;23.10;46.91;93588.03;5073401;28;7481;-58
2024/03/23 06:35:25;;;;;;;;;;;;;;;23.17;47.21;93612.16;5058809;28;7387;-58
2024/03/23 06:37:54;;;;;;;;;;;;;;;23.18;47.05;93613.66;5073256;28;9030;-58
2024/03/23 06:40:20;;;;;;;;;;;;;;;23.14;47.22;93594.00;5055076;28;7339;-58
2024/03/23 06:42:55;;;;;;;;;;;;;;;23.14;47.25;93590.53;5071523;28;6996;-58
2024/03/23 06:45:31;;;;;;;;;;;;;;;23.14;47.30;93596.72;5079011;28;9433;-57
2024/03/23 06:48:00;;;;;;;;;;;;;;;23.21;47.46;93618.13;5071285;28;7022;-60
2024/03/23 06:50:48;;;;;;;;;;;;;;;23.20;47.58;93613.91;5074676;28;7139;-61
2024/03/23 06:53:20;;;;;;;;;;;;;;;23.22;47.24;93629.84;5064558;28;7128;-60
2024/03/23 06:56:03;;;;;;;;;;;;;;;23.20;47.42;93608.41;5086383;28;7110;-58
2024/03/23 06:58:43;;;;;;;;;;;;;;;23.21;47.48;93617.38;5085994;28;7716;-58
2024/03/23 07:01:14;;;;;;;;;;;;;;;23.19;47.41;93631.59;5076508;28;7020;-58
2024/03/23 07:03:40;;;;;;;;;;;;;;;23.19;47.45;93636.34;5058923;28;7298;-58
2024/03/23 07:06:06;;;;;;;;;;;;;;;23.16;47.45;93642.88;5081110;28;7002;-58
2024/03/23 07:08:32;;;;;;;;;;;;;;;23.09;47.42;93633.19;5045232;28;10128;-58
2024/03/23 07:11:00;;;;;;;;;;;;;;;23.07;47.13;93641.19;5061966;28;7018;-58
2024/03/23 07:13:28;;;;;;;;;;;;;;;23.06;47.51;93628.72;5069427;28;7156;-58
2024/03/23 07:15:55;;;;;;;;;;;;;;;23.10;47.05;93639.41;5087274;28;7072;-57
2024/03/23 07:18:21;;;;;;;;;;;;;;;23.13;47.64;93644.63;5047643;28;7406;-58
2024/03/23 07:20:56;;;;;;;;;;;;;;;23.15;47.34;93652.34;5075912;28;7029;-59
2024/03/23 07:23:31;;;;;;;;;;;;;;;23.13;47.06;93654.84;5070834;28;7092;-59
2024/03/23 07:26:18;;;;;;;;;;;;;;;23.12;47.43;93656.84;5052361;28;7054;-60
2024/03/23 07:29:14;;;;;;;;;;;;;;;23.11;47.03;93658.13;5077292;28;7225;-59
2024/03/23 07:31:41;;;;;;;;;;;;;;;23.06;47.02;93647.19;5073908;28;7271;-59
2024/03/23 07:34:29;;;;;;;;;;;;;;;23.06;47.24;93661.63;5063012;28;7106;-60
2024/03/23 07:36:55;;;;;;;;;;;;;;;23.01;47.21;93659.69;5066585;28;7056;-60
2024/03/23 07:39:27;;;;;;;;;;;;;;;23.10;47.38;93686.78;5073919;28;7027;-60
2024/03/23 07:41:55;;;;;;;;;;;;;;;23.10;47.49;93686.78;5078979;28;7062;-59
2024/03/23 07:44:21;;;;;;;;;;;;;;;23.01;47.40;93684.34;5061874;28;7408;-60
2024/03/23 07:47:00;;;;;;;;;;;;;;;23.10;47.31;93686.03;5057457;28;8424;-59
2024/03/23 07:49:33;;;;;;;;;;;;;;;23.08;47.75;93696.78;5067626;28;7229;-60
2024/03/23 07:51:58;;;;;;;;;;;;;;;23.01;47.39;93700.81;5060180;28;7239;-59
2024/03/23 07:54:26;;;;;;;;;;;;;;;23.06;47.74;93716.50;5075449;28;8153;-59
2024/03/23 07:56:56;;;;;;;;;;;;;;;23.05;47.58;93725.97;5083572;28;7399;-60
2024/03/23 07:59:42;;;;;;;;;;;;;;;23.05;47.25;93725.25;5067727;28;7022;-62
2024/03/23 08:02:08;;;;;;;;;;;;;;;23.06;47.52;93737.69;5073879;28;7027;-63
2024/03/23 08:04:34;;;;;;;;;;;;;;;23.06;47.40;93732.19;5059449;28;7185;-59
2024/03/23 08:07:07;;;;;;;;;;;;;;;23.00;47.98;93729.50;5070783;28;7031;-59
2024/03/23 08:09:32;;;;;;;;;;;;;;;23.05;47.90;93736.22;5072541;28;7141;-59
2024/03/23 08:12:02;;;;;;;;;;;;;;;23.06;47.74;93752.16;5073665;28;7130;-59
2024/03/23 08:14:30;;;;;;;;;;;;;;;23.02;48.07;93759.91;5072879;28;8942;-59
2024/03/23 08:17:09;;;;;;;;;;;;;;;23.05;47.96;93783.56;5044306;28;7201;-59
2024/03/23 08:19:44;;;;;;;;;;;;;;;22.96;47.89;93788.63;5080882;28;7127;-59
2024/03/23 08:22:21;;;;;;;;;;;;;;;22.99;48.00;93815.78;5060493;28;7033;-59
2024/03/23 08:24:47;;;;;;;;;;;;;;;23.04;47.71;93831.47;5071745;28;7506;-59
2024/03/23 08:27:24;;;;;;;;;;;;;;;23.03;47.43;93832.69;5074509;28;7222;-59
2024/03/23 08:30:00;;;;;;;;;;;;;;;22.99;47.23;93815.78;5068842;28;7493;-59
2024/03/23 08:32:34;;;;;;;;;;;;;;;23.02;47.98;93849.66;5056374;28;7557;-57
2024/03/23 08:35:20;;;;;;;;;;;;;;;22.97;47.83;93856.66;5082197;28;7187;-58
2024/03/23 08:37:59;;;;;;;;;;;;;;;22.92;48.08;93871.16;5067056;28;7276;-57
2024/03/23 08:40:26;;;;;;;;;;;;;;;22.89;48.15;93877.66;5079617;28;7282;-58
2024/03/23 08:43:28;;;;;;;;;;;;;;;22.92;47.92;93892.34;5072204;28;7301;-58
2024/03/23 08:46:12;;;;;;;;;;;;;;;22.91;48.55;93902.56;5054152;28;7379;-57
2024/03/23 08:49:14;;;;;;;;;;;;;;;22.90;48.31;93903.09;5060636;28;9722;-58
2024/03/23 08:51:42;;;;;;;;;;;;;;;22.89;48.35;93921.53;5069332;28;7309;-58
2024/03/23 08:54:20;;;;;;;;;;;;;;;22.84;48.29;93911.31;5079210;28;9124;-58
2024/03/23 08:56:49;;;;;;;;;;;;;;;22.89;48.03;93931.75;5068423;28;7349;-58
2024/03/23 09:00:02;;;;;;;;;;;;;;;22.88;48.04;93933.00;5070254;28;7098;-58
2024/03/23 09:02:31;;;;;;;;;;;;;;;22.87;47.58;93935.00;4984861;28;7082;-58
2024/03/23 09:05:03;;;;;;;;;;;;;;;22.86;48.62;93949.22;5012075;28;8220;-58
2024/03/23 09:07:34;;;;;;;;;;;;;;;22.86;48.33;93949.22;5012046;28;7217;-58
2024/03/23 09:10:00;;;;;;;;;;;;;;;22.87;48.17;93967.16;5020802;28;8788;-58
2024/03/23 09:12:46;;;;;;;;;;;;;;;22.87;48.32;93961.66;4994426;28;7075;-59
2024/03/23 09:15:20;;;;;;;;;;;;;;;22.85;48.18;93970.41;4998453;28;10103;-59
2024/03/23 09:18:05;;;;;;;;;;;;;;;22.79;48.30;93955.97;4985611;28;7273;-59
2024/03/23 09:20:46;;;;;;;;;;;;;;;22.87;48.10;93978.88;5012111;28;7046;-59
2024/03/23 09:23:12;;;;;;;;;;;;;;;22.84;48.14;93981.84;5013402;28;8603;-59
2024/03/23 09:25:41;;;;;;;;;;;;;;;22.82;48.39;93971.41;5009884;28;6860;-59
2024/03/23 09:28:17;;;;;;;;;;;;;;;22.78;48.47;93978.38;4994462;28;7115;-59
2024/03/23 09:31:02;;;;;;;;;;;;;;;22.83;48.90;93986.63;5012226;28;7205;-59
2024/03/23 09:33:29;;;;;;;;;;;;;;;22.81;48.41;93980.13;4994736;28;7059;-59
2024/03/23 09:35:56;;;;;;;;;;;;;;;22.81;48.21;93991.09;5006751;28;9018;-59
2024/03/23 09:38:27;;;;;;;;;;;;;;;22.79;48.96;93979.88;5023074;28;7843;-59
2024/03/23 09:41:07;;;;;;;;;;;;;;;22.80;48.62;93987.59;5072903;28;9779;-58
2024/03/23 09:43:48;;;;;;;;;;;;;;;22.81;48.38;93991.84;5069097;28;7437;-59
2024/03/23 09:46:28;;;;;;;;;;;;;;;22.79;48.51;93985.38;5074018;28;7312;-59
2024/03/23 09:49:13;;;;;;;;;;;;;;;22.83;48.88;93994.09;5061272;28;7325;-59
2024/03/23 09:51:39;;;;;;;;;;;;;;;22.79;48.14;93983.38;5078626;28;7729;-59
2024/03/23 09:54:06;;;;;;;;;;;;;;;22.74;48.71;93992.34;5072582;28;7063;-59
2024/03/23 09:57:02;;;;;;;;;;;;;;;22.79;48.74;94002.56;5070937;28;7706;-59
2024/03/23 10:00:17;;;;;;;;;;;;;;;22.82;49.12;94006.28;4975406;28;9457;-59
2024/03/23 10:03:01;;;;;;;;;;;;;;;22.78;49.13;93997.56;4992537;28;7227;-59
2024/03/23 10:05:31;;;;;;;;;;;;;;;22.78;49.04;93995.59;4990258;28;7036;-59
2024/03/23 10:07:57;;;;;;;;;;;;;;;22.77;48.87;93991.34;4975304;28;7038;-59
2024/03/23 10:10:25;;;;;;;;;;;;;;;22.79;48.96;93994.34;4990939;28;9421;-59
2024/03/23 10:13:14;;;;;;;;;;;;;;;22.85;48.79;94003.31;5006262;28;7483;-59
2024/03/23 10:15:40;;;;;;;;;;;;;;;22.77;47.04;94007.78;5003500;28;8663;-59
2024/03/23 10:18:25;;;;;;;;;;;;;;;22.71;47.77;94009.03;4998192;28;9553;-60
2024/03/23 10:21:06;;;;;;;;;;;;;;;22.66;48.64;93996.13;5001551;28;9590;-59
2024/03/23 10:23:46;;;;;;;;;;;;;;;22.74;48.49;94002.56;4998201;28;8762;-59
2024/03/23 10:26:50;;;;;;;;;;;;;;;22.74;48.29;93997.09;4999196;28;7104;-59
2024/03/23 10:29:28;;;;;;;;;;;;;;;22.69;48.16;93990.38;5008542;28;7053;-59
2024/03/23 10:35:03;;;;;;;;;;;;;;;22.80;48.44;93995.84;5071135;28;6649;-57
2024/03/23 10:37:33;;;;;;;;;;;;;;;22.76;48.89;93991.84;5081955;28;9066;-59
2024/03/23 10:39:59;;;;;;;;;;;;;;;22.72;48.63;94003.09;5054311;28;9005;-59
2024/03/23 10:42:27;;;;;;;;;;;;;;;22.69;48.62;93993.09;5049962;28;7094;-59
2024/03/23 10:44:59;;;;;;;;;;;;;;;22.76;48.61;94008.31;5062202;28;6970;-59
2024/03/23 10:47:26;;;;;;;;;;;;;;;22.75;48.80;94012.31;5030943;28;7040;-58
2024/03/23 10:50:19;;;;;;;;;;;;;;;22.75;48.85;94009.56;5044889;28;9426;-60
2024/03/23 10:53:17;;;;;;;;;;;;;;;22.75;48.68;94021.25;4987054;28;7245;-59
2024/03/23 10:55:56;;;;;;;;;;;;;;;22.76;49.12;94025.50;4969568;28;7047;-59
2024/03/23 10:58:53;;;;;;;;;;;;;;;22.80;49.24;94026.00;4964584;28;7331;-60
2024/03/23 11:01:20;;;;;;;;;;;;;;;22.80;49.31;94020.50;4974214;28;7061;-59
2024/03/23 11:03:57;;;;;;;;;;;;;;;22.79;49.10;94021.00;4996314;28;7304;-59
2024/03/23 11:07:01;;;;;;;;;;;;;;;22.80;48.97;94017.75;4987419;28;9728;-57
2024/03/23 11:09:53;;;;;;;;;;;;;;;22.82;50.34;94014.50;4988522;28;7705;-58
2024/03/23 11:12:32;;;;;;;;;;;;;;;22.84;51.29;94010.03;4978684;28;7425;-58
2024/03/23 11:15:14;;;;;;;;;;;;;;;23.16;70.06;94032.41;4972612;28;9813;-58
2024/03/23 11:17:40;;;;;;;;;;;;;;;23.66;73.03;94024.75;4965279;28;7620;-58
2024/03/23 11:20:31;;;;;;;;;;;;;;;24.27;72.87;94026.44;4957957;28;9534;-60
2024/03/23 11:23:32;;;;;;;;;;;;;;;24.67;70.95;94020.09;4964394;28;7051;-58
2024/03/23 11:26:07;;;;;;;;;;;;;;;25.01;70.15;94026.06;4976722;28;7136;-59
2024/03/23 11:29:24;;;;;;;;;;;;;;;25.24;68.37;94028.06;4971291;28;7009;-61
2024/03/23 11:31:52;;;;;;;;;;;;;;;25.29;52.76;94007.25;5042001;28;7330;-58
2024/03/23 11:34:20;;;;;;;;;;;;;;;25.26;53.76;94009.03;5055595;28;7251;-58
2024/03/23 11:36:47;;;;;;;;;;;;;;;24.68;50.12;94011.31;5058841;28;7519;-58
2024/03/23 11:39:17;;;;;;;;;;;;;;;24.15;48.47;94003.78;5059507;28;7056;-58
2024/03/23 11:41:51;;;;;;;;;;;;;;;23.71;49.03;94001.25;5058238;28;6950;-58
2024/03/23 11:44:24;;;;;;;;;;;;;;;23.51;49.43;94012.59;5060248;28;7015;-58
2024/03/23 11:46:52;;;;;;;;;;;;;;;23.38;49.13;94009.66;5046795;28;9304;-58
2024/03/23 11:49:42;;;;;;;;;;;;;;;23.24;49.21;94009.44;5041705;28;9549;-58
2024/03/23 11:52:19;;;;;;;;;;;;;;;23.11;49.75;94009.22;5054228;28;7522;-58
2024/03/23 11:54:46;;;;;;;;;;;;;;;23.09;49.35;94019.97;5043452;28;6987;-58
2024/03/23 11:57:24;;;;;;;;;;;;;;;22.99;49.95;94001.50;5071087;28;7054;-58
2024/03/23 11:59:52;;;;;;;;;;;;;;;23.02;50.02;94019.72;5054206;28;7058;-58
2024/03/23 12:02:18;;;;;;;;;;;;;;;22.98;49.87;94006.28;5053574;28;7276;-67
2024/03/23 12:04:47;;;;;;;;;;;;;;;22.95;49.85;94007.25;5040319;28;9324;-67
2024/03/23 12:07:21;;;;;;;;;;;;;;;22.86;49.83;93990.34;5046371;28;9089;-66
2024/03/23 12:10:19;;;;;;;;;;;;;;;22.90;49.90;93988.81;5045226;28;8093;-67
2024/03/23 12:13:03;;;;;;;;;;;;;;;22.89;50.03;93989.34;5054661;28;7256;-66
2024/03/23 12:15:47;;;;;;;;;;;;;;;22.87;50.11;93992.59;5045360;28;8611;-66
2024/03/23 12:18:24;;;;;;;;;;;;;;;22.85;49.98;93981.38;5049622;28;7194;-67
2024/03/23 12:21:04;;;;;;;;;;;;;;;22.86;50.01;93971.88;5050179;28;9458;-66
2024/03/23 12:23:39;;;;;;;;;;;;;;;22.88;49.87;93968.66;5063171;28;7980;-73
2024/03/23 12:26:15;;;;;;;;;;;;;;;22.90;50.00;93968.91;5038696;28;9075;-71
2024/03/23 12:28:47;;;;;;;;;;;;;;;22.83;48.99;93953.72;5039581;28;7002;-66
2024/03/23 12:31:24;;;;;;;;;;;;;;;22.83;48.57;93948.22;5045403;28;9060;-65
2024/03/23 12:33:51;;;;;;;;;;;;;;;22.77;49.25;93947.47;5053248;28;7154;-66
2024/03/23 12:36:21;;;;;;;;;;;;;;;22.79;49.00;93949.72;5050550;28;9086;-65
2024/03/23 12:38:49;;;;;;;;;;;;;;;22.78;48.58;93932.53;5042753;28;6993;-66
2024/03/23 12:41:17;;;;;;;;;;;;;;;22.75;49.00;93922.56;5034652;28;7526;-67
2024/03/23 12:44:03;;;;;;;;;;;;;;;22.83;48.73;93931.78;5053331;28;9194;-66
2024/03/23 12:47:15;;;;;;;;;;;;;;;22.86;49.09;93944.47;5046702;28;7136;-65
2024/03/23 12:49:42;;;;;;;;;;;;;;;22.87;49.01;93929.50;4999358;28;7478;-71
2024/03/23 12:52:12;;;;;;;;;;;;;;;22.84;48.67;93921.53;5002937;28;9459;-68
2024/03/23 12:54:38;;;;;;;;;;;;;;;22.87;48.64;93929.50;5022029;28;7092;-69
2024/03/23 12:57:19;;;;;;;;;;;;;;;22.87;48.93;93926.03;5011898;28;7054;-67
2024/03/23 12:59:56;;;;;;;;;;;;;;;22.89;48.91;93915.28;5019213;28;7009;-68
2024/03/23 13:02:23;;;;;;;;;;;;;;;22.91;48.79;93923.75;5024600;28;7060;-65
2024/03/23 13:04:59;;;;;;;;;;;;;;;22.89;48.86;93905.06;5017981;28;6852;-69
2024/03/23 13:07:25;;;;;;;;;;;;;;;22.95;48.54;93918.75;4988630;28;7134;-73
2024/03/23 13:09:53;;;;;;;;;;;;;;;22.96;48.49;93903.81;5003927;28;7199;-68
2024/03/23 13:12:25;;;;;;;;;;;;;;;22.92;48.46;93917.03;5024476;28;7088;-58
2024/03/23 13:14:57;;;;;;;;;;;;;;;22.97;48.76;93919.75;5007623;28;7707;-58
2024/03/23 13:17:23;;;;;;;;;;;;;;;22.90;48.56;93898.31;5003891;28;9452;-58
2024/03/23 13:19:49;;;;;;;;;;;;;;;22.90;48.78;93903.81;5011766;28;7273;-58
2024/03/23 13:22:16;;;;;;;;;;;;;;;22.90;48.42;93892.84;4998071;28;7602;-58
2024/03/23 13:24:42;;;;;;;;;;;;;;;22.96;48.65;93901.81;5005307;28;9537;-58
2024/03/23 13:27:11;;;;;;;;;;;;;;;22.92;48.52;93898.56;5034519;28;7062;-58
2024/03/23 13:29:39;;;;;;;;;;;;;;;22.93;48.50;93897.31;5035275;28;7020;-58
2024/03/23 13:32:07;;;;;;;;;;;;;;;22.90;48.75;93872.91;5048757;28;8855;-58
2024/03/23 13:34:34;;;;;;;;;;;;;;;23.01;48.59;93900.31;5050949;28;7401;-58
2024/03/23 13:37:01;;;;;;;;;;;;;;;23.00;48.74;93902.28;5041299;28;7504;-58
2024/03/23 13:39:30;;;;;;;;;;;;;;;23.04;48.52;93888.31;5038981;28;7036;-57
2024/03/23 13:41:56;;;;;;;;;;;;;;;23.04;48.56;93899.28;5040163;28;7289;-58
2024/03/23 13:44:22;;;;;;;;;;;;;;;22.99;48.79;93895.31;5043852;28;8901;-58
2024/03/23 13:46:49;;;;;;;;;;;;;;;23.05;48.13;93881.56;5048876;28;7236;-58
2024/03/23 13:49:26;;;;;;;;;;;;;;;23.06;48.47;93880.31;5039349;28;6973;-58
2024/03/23 13:51:54;;;;;;;;;;;;;;;23.03;48.63;93882.06;5040141;28;7040;-58
2024/03/23 13:54:21;;;;;;;;;;;;;;;23.04;48.60;93889.06;5045538;28;7356;-58